Cabo Rojo, Puerto Rico
Current Conditions -  °F | °C
As of 12:50 PM on Saturday 22 Nov 2014 (Local Time) from TJBQ Reporting Station
Light Rain Light Rain  
Wind Chill: 81°   Ceiling: 2500
Heat Index: 85°   Visibility: 7mi
Dew Point: 73°   Wind: 15mph
Humidity: 79%   Direction: 90°E
Pressure: 30.01"   Gusts: 23mph
Location:  18.09°N, 67.15°W
Report Text: TJBQ 221650Z 09013G20KT 7SM -RA SCT014 BKN025 OVC120 27/23 A3001 RMK RWY08 ATIS T
Loading
Personal Weather Stations






























Interactive Weather Map New forecast layout! Learn more

10-Day Weather Forecast

Advertisements
Track Severe Weather on mobile